createdAt,value
2023-03-26T00:02:42.681Z,100224.56
2023-03-26T00:07:44.740Z,100223.94
2023-03-26T00:12:47.213Z,100231.44
2023-03-26T00:17:49.480Z,100232.44
2023-03-26T00:22:51.700Z,100231.22
2023-03-26T00:27:54.165Z,100226.97
2023-03-26T00:32:55.990Z,100219.28
2023-03-26T00:37:58.157Z,100218.44
2023-03-26T00:42:59.962Z,100213.00
2023-03-26T00:48:02.839Z,100204.88
2023-03-26T00:53:05.308Z,100192.78
2023-03-26T00:58:07.854Z,100196.97
2023-03-26T01:03:26.621Z,100184.03
2023-03-26T01:08:39.579Z,100181.34
2023-03-26T01:13:54.304Z,100172.91
2023-03-26T01:18:56.477Z,100160.38
2023-03-26T01:24:02.259Z,100152.66
2023-03-26T01:29:05.759Z,100146.28
2023-03-26T01:34:18.621Z,100146.59
2023-03-26T01:39:38.219Z,100138.28
2023-03-26T01:44:55.371Z,100127.88
2023-03-26T01:49:57.657Z,100132.84
2023-03-26T01:54:59.970Z,100119.19
2023-03-26T02:00:01.789Z,100111.09
2023-03-26T02:05:20.686Z,100108.91
2023-03-26T02:10:29.636Z,100097.84
2023-03-26T02:15:31.553Z,100094.13
2023-03-26T02:20:33.570Z,100085.59
2023-03-26T02:25:35.297Z,100071.22
2023-03-26T02:30:37.428Z,100065.47
2023-03-26T02:35:39.307Z,100053.28
2023-03-26T02:40:42.099Z,100041.94
2023-03-26T02:45:44.271Z,100040.53
2023-03-26T02:51:14.287Z,100036.09
2023-03-26T02:56:28.930Z,100031.19
2023-03-26T03:01:58.133Z,100022.78
2023-03-26T03:06:59.817Z,100018.78
2023-03-26T03:12:02.190Z,100017.78
2023-03-26T03:17:03.987Z,100002.94
2023-03-26T03:22:06.094Z,99995.88
2023-03-26T03:27:10.127Z,99986.63
2023-03-26T03:32:16.974Z,99972.63
2023-03-26T03:37:21.990Z,99979.09
2023-03-26T03:42:27.724Z,99973.09
2023-03-26T03:47:32.581Z,99961.44
2023-03-26T03:52:34.809Z,99953.38
2023-03-26T03:57:36.642Z,99953.56
2023-03-26T04:02:43.459Z,99940.50
2023-03-26T04:07:45.902Z,99921.53
2023-03-26T04:13:07.877Z,99919.50
2023-03-26T04:18:27.891Z,99906.16
2023-03-26T04:23:32.462Z,99898.50
2023-03-26T04:28:50.379Z,99890.38
2023-03-26T04:34:04.078Z,99889.69
2023-03-26T04:39:07.073Z,99873.41
2023-03-26T04:44:27.729Z,99860.97
2023-03-26T04:49:35.857Z,99853.75
2023-03-26T04:54:38.777Z,99852.16
2023-03-26T04:59:45.678Z,99847.34
2023-03-26T05:04:49.257Z,99830.47
2023-03-26T05:09:52.395Z,99822.56
2023-03-26T05:15:17.685Z,99823.56
2023-03-26T05:20:41.090Z,99813.91
2023-03-26T05:25:45.113Z,99799.84
2023-03-26T05:30:53.111Z,99793.66
2023-03-26T05:36:03.223Z,99793.88
2023-03-26T05:41:09.557Z,99795.91
2023-03-26T05:46:15.974Z,99792.47
2023-03-26T05:51:18.572Z,99778.75
2023-03-26T05:56:32.955Z,99778.34
2023-03-26T06:01:53.175Z,99760.28
2023-03-26T06:07:14.162Z,99763.94
2023-03-26T06:12:20.402Z,99750.59
2023-03-26T06:17:22.715Z,99735.75
2023-03-26T06:22:49.018Z,99734.56
2023-03-26T06:27:55.626Z,99724.31
2023-03-26T06:33:09.564Z,99712.59
2023-03-26T06:38:18.529Z,99714.44
2023-03-26T06:43:20.876Z,99708.81
2023-03-26T06:48:42.937Z,99706.81
2023-03-26T06:54:03.541Z,99700.38
2023-03-26T06:59:34.672Z,99700.41
2023-03-26T07:05:03.466Z,99698.97
2023-03-26T07:10:23.958Z,99688.91
2023-03-26T07:15:46.153Z,99682.88
2023-03-26T07:20:57.354Z,99683.03
2023-03-26T07:26:23.158Z,99670.44
2023-03-26T07:31:59.503Z,99666.81
2023-03-26T07:37:32.194Z,99651.72
2023-03-26T07:43:30.754Z,99649.31
2023-03-26T07:48:46.047Z,99643.31
2023-03-26T07:54:07.268Z,99635.84
2023-03-26T07:59:53.082Z,99623.19
2023-03-26T08:05:31.145Z,99618.75
2023-03-26T08:11:31.422Z,99617.56
2023-03-26T08:17:31.260Z,99612.13
2023-03-26T08:22:42.030Z,99613.16
2023-03-26T08:27:55.645Z,99610.94
2023-03-26T08:33:12.925Z,99607.50
2023-03-26T08:38:16.977Z,99607.31
2023-03-26T08:43:46.638Z,99608.31
2023-03-26T08:49:29.764Z,99601.09
2023-03-26T08:54:47.220Z,99596.47
2023-03-26T09:00:16.720Z,99594.44
2023-03-26T09:05:43.175Z,99579.53
2023-03-26T09:10:52.463Z,99571.06
2023-03-26T09:16:29.466Z,99568.22
2023-03-26T09:21:43.230Z,99565.56
2023-03-26T09:27:08.690Z,99542.06
2023-03-26T09:32:41.516Z,99532.00
2023-03-26T09:37:58.631Z,99533.97
2023-03-26T09:43:32.966Z,99513.53
2023-03-26T09:48:42.877Z,99506.94
2023-03-26T09:54:09.444Z,99500.34
2023-03-26T09:59:44.863Z,99492.13
2023-03-26T10:05:17.361Z,99498.38
2023-03-26T10:11:16.506Z,99481.66
2023-03-26T10:17:11.778Z,99472.56
2023-03-26T10:22:44.227Z,99461.59
2023-03-26T10:28:09.734Z,99461.03
2023-03-26T10:33:54.509Z,99459.38
2023-03-26T10:39:35.878Z,99452.03
2023-03-26T10:44:56.001Z,99446.78
2023-03-26T10:50:25.281Z,99439.94
2023-03-26T10:55:40.806Z,99433.59
2023-03-26T11:00:53.431Z,99432.91
2023-03-26T11:06:23.365Z,99418.88
2023-03-26T11:11:40.298Z,99424.78
2023-03-26T11:16:47.848Z,99406.19
2023-03-26T11:22:04.950Z,99405.19
2023-03-26T11:27:49.037Z,99406.44
2023-03-26T11:33:16.847Z,99409.13
2023-03-26T11:38:28.607Z,99404.19
2023-03-26T11:43:35.384Z,99394.16
2023-03-26T11:48:40.339Z,99386.19
2023-03-26T11:53:41.871Z,99397.16
2023-03-26T11:58:51.001Z,99403.34
2023-03-26T12:04:11.180Z,99390.72
2023-03-26T12:09:20.043Z,99401.09
2023-03-26T12:14:27.098Z,99393.44
2023-03-26T12:19:35.295Z,99395.41
2023-03-26T12:24:36.990Z,99391.75
2023-03-26T12:29:38.532Z,99394.38
2023-03-26T12:34:42.252Z,99399.69
2023-03-26T12:40:08.609Z,99393.69
2023-03-26T12:45:06.735Z,99401.59
2023-03-26T12:50:13.716Z,99413.16
2023-03-26T12:55:35.777Z,99409.22
2023-03-26T13:01:10.825Z,99416.56
2023-03-26T13:07:04.992Z,99417.66
2023-03-26T13:12:34.170Z,99427.94
2023-03-26T13:18:07.058Z,99431.50
2023-03-26T13:23:22.473Z,99431.28
2023-03-26T13:29:02.723Z,99437.47
2023-03-26T13:34:25.833Z,99439.16
2023-03-26T13:39:51.843Z,99434.28
2023-03-26T13:45:18.273Z,99439.72
2023-03-26T13:50:25.656Z,99443.22
2023-03-26T13:55:45.852Z,99443.50
2023-03-26T14:00:55.012Z,99445.50
2023-03-26T14:06:04.896Z,99444.56
2023-03-26T14:11:22.165Z,99449.34
2023-03-26T14:16:30.417Z,99444.56
2023-03-26T14:21:56.611Z,99451.97
2023-03-26T14:27:01.246Z,99460.66
2023-03-26T14:32:14.710Z,99467.59
2023-03-26T14:38:13.654Z,99468.75
2023-03-26T14:43:23.909Z,99476.78
2023-03-26T14:48:41.101Z,99473.41
2023-03-26T14:53:48.308Z,99481.00
2023-03-26T14:59:20.982Z,99488.88
2023-03-26T15:04:56.527Z,99494.44
2023-03-26T15:10:14.193Z,99500.53
2023-03-26T15:15:53.996Z,99507.00
2023-03-26T15:21:15.261Z,99512.34
2023-03-26T15:26:28.996Z,99517.00
2023-03-26T15:32:04.787Z,99531.38
2023-03-26T15:37:28.731Z,99535.47
2023-03-26T15:42:43.565Z,99539.75
2023-03-26T15:48:11.361Z,99546.41
2023-03-26T15:53:19.594Z,99553.47
2023-03-26T15:58:49.841Z,99564.59
2023-03-26T16:03:57.251Z,99576.66
2023-03-26T16:09:25.316Z,99581.59
2023-03-26T16:14:36.179Z,99590.81
2023-03-26T16:19:37.909Z,99596.28
2023-03-26T16:25:26.903Z,99599.94
2023-03-26T16:30:32.556Z,99615.06
2023-03-26T16:35:52.596Z,99624.34
2023-03-26T16:41:00.139Z,99637.88
2023-03-26T16:46:27.969Z,99642.31
2023-03-26T16:51:42.760Z,99649.00
2023-03-26T16:57:05.607Z,99664.09
2023-03-26T17:02:31.908Z,99675.75
2023-03-26T17:07:47.737Z,99682.41
2023-03-26T17:13:01.206Z,99694.28
2023-03-26T17:18:21.304Z,99701.53
2023-03-26T17:24:01.912Z,99716.19
2023-03-26T17:29:18.835Z,99732.91
2023-03-26T17:34:38.469Z,99756.63
2023-03-26T17:39:39.960Z,99759.63
2023-03-26T17:44:45.825Z,99771.50
2023-03-26T17:49:51.169Z,99782.75
2023-03-26T17:54:55.943Z,99788.72
2023-03-26T17:59:59.527Z,99806.38
2023-03-26T18:05:03.485Z,99818.47
2023-03-26T18:10:35.712Z,99827.84
2023-03-26T18:15:57.309Z,99838.69
2023-03-26T18:21:02.455Z,99848.47
2023-03-26T18:26:15.805Z,99863.63
2023-03-26T18:31:25.532Z,99882.59
2023-03-26T18:36:27.718Z,99893.63
2023-03-26T18:41:34.678Z,99894.81
2023-03-26T18:46:36.585Z,99919.09
2023-03-26T18:51:46.384Z,99921.88
2023-03-26T18:56:55.918Z,99939.78
2023-03-26T19:02:03.640Z,99945.72
2023-03-26T19:07:11.630Z,99947.63
2023-03-26T19:12:20.252Z,99967.47
2023-03-26T19:17:23.728Z,99974.88
2023-03-26T19:22:26.196Z,99986.31
2023-03-26T19:27:28.222Z,99990.28
2023-03-26T19:32:31.796Z,100005.91
2023-03-26T19:37:33.442Z,100019.72
2023-03-26T19:42:43.899Z,100025.28
2023-03-26T19:47:54.735Z,100032.94
2023-03-26T19:53:16.149Z,100041.31
2023-03-26T19:58:18.866Z,100056.72
2023-03-26T20:03:29.318Z,100056.47
2023-03-26T20:08:31.069Z,100085.09
2023-03-26T20:13:32.773Z,100092.44
2023-03-26T20:18:34.982Z,100090.13
2023-03-26T20:23:36.501Z,100091.84
2023-03-26T20:28:47.322Z,100111.00
2023-03-26T20:33:51.146Z,100123.50
2023-03-26T20:38:52.908Z,100125.31
2023-03-26T20:43:54.830Z,100132.16
2023-03-26T20:48:56.948Z,100150.88
2023-03-26T20:53:58.685Z,100177.63
2023-03-26T20:59:10.635Z,100181.31
2023-03-26T21:04:14.139Z,100181.56
2023-03-26T21:09:19.526Z,100185.72
2023-03-26T21:14:27.623Z,100197.22
2023-03-26T21:19:29.886Z,100203.44
2023-03-26T21:24:58.363Z,100218.03
2023-03-26T21:30:00.313Z,100225.22
2023-03-26T21:35:02.237Z,100245.53
2023-03-26T21:40:04.553Z,100256.50
2023-03-26T21:45:07.640Z,100262.84
2023-03-26T21:50:12.523Z,100269.16
2023-03-26T21:55:20.071Z,100286.38
2023-03-26T22:00:30.781Z,100288.69
2023-03-26T22:05:42.447Z,100305.19
2023-03-26T22:10:43.955Z,100326.38
2023-03-26T22:15:45.683Z,100335.88
2023-03-26T22:20:48.542Z,100345.00
2023-03-26T22:25:50.190Z,100359.34
2023-03-26T22:30:51.933Z,100380.44
2023-03-26T22:35:55.560Z,100391.91
2023-03-26T22:40:57.995Z,100405.13
2023-03-26T22:45:59.772Z,100419.97
2023-03-26T22:51:05.154Z,100427.81
2023-03-26T22:56:07.389Z,100458.75
2023-03-26T23:01:14.086Z,100466.06
2023-03-26T23:06:15.822Z,100486.00
2023-03-26T23:11:19.758Z,100495.22
2023-03-26T23:16:21.438Z,100502.84
2023-03-26T23:21:23.196Z,100513.25
2023-03-26T23:26:24.764Z,100519.34
2023-03-26T23:31:26.832Z,100534.41
2023-03-26T23:36:28.373Z,100551.38
2023-03-26T23:41:29.932Z,100563.84
2023-03-26T23:46:31.545Z,100576.72
2023-03-26T23:51:33.524Z,100588.41
2023-03-26T23:56:35.097Z,100599.84
